sensor_id;sensor_type;location;lat;lon;timestamp;pressure;altitude;pressure_sealevel;temperature;humidity
11339;BME280;5724;42.684;23.252;2022-08-05T00:01:14;94504.66;;;20.01;65.28
11339;BME280;5724;42.684;23.252;2022-08-05T00:03:41;94501.03;;;20.05;65.23
11339;BME280;5724;42.684;23.252;2022-08-05T00:06:07;94503.88;;;20.01;64.99
11339;BME280;5724;42.684;23.252;2022-08-05T00:08:33;94506.66;;;19.97;65.05
11339;BME280;5724;42.684;23.252;2022-08-05T00:10:59;94495.91;;;20.03;64.53
11339;BME280;5724;42.684;23.252;2022-08-05T00:13:25;94498.75;;;19.96;64.45
11339;BME280;5724;42.684;23.252;2022-08-05T00:15:51;94499.94;;;19.98;64.27
11339;BME280;5724;42.684;23.252;2022-08-05T00:18:16;94502.28;;;20.00;64.28
11339;BME280;5724;42.684;23.252;2022-08-05T00:20:42;94495.19;;;19.99;64.63
11339;BME280;5724;42.684;23.252;2022-08-05T00:23:08;94500.81;;;19.92;63.57
11339;BME280;5724;42.684;23.252;2022-08-05T00:25:34;94494.41;;;19.95;63.66
11339;BME280;5724;42.684;23.252;2022-08-05T00:27:59;94489.72;;;19.92;64.49
11339;BME280;5724;42.684;23.252;2022-08-05T00:30:25;94486.22;;;19.84;65.56
11339;BME280;5724;42.684;23.252;2022-08-05T00:32:50;94491.06;;;19.77;65.65
11339;BME280;5724;42.684;23.252;2022-08-05T00:35:16;94478.47;;;19.72;65.49
11339;BME280;5724;42.684;23.252;2022-08-05T00:37:41;94483.97;;;19.76;65.96
11339;BME280;5724;42.684;23.252;2022-08-05T00:40:07;94482.34;;;19.78;65.78
11339;BME280;5724;42.684;23.252;2022-08-05T00:42:37;94483.53;;;19.77;65.55
11339;BME280;5724;42.684;23.252;2022-08-05T00:45:07;94481.94;;;19.80;64.90
11339;BME280;5724;42.684;23.252;2022-08-05T00:47:34;94483.47;;;19.84;64.42
11339;BME280;5724;42.684;23.252;2022-08-05T00:49:59;94474.34;;;19.84;64.84
11339;BME280;5724;42.684;23.252;2022-08-05T00:52:25;94483.88;;;19.83;64.72
11339;BME280;5724;42.684;23.252;2022-08-05T00:54:50;94475.66;;;19.76;64.28
11339;BME280;5724;42.684;23.252;2022-08-05T00:57:16;94472.28;;;19.57;64.29
11339;BME280;5724;42.684;23.252;2022-08-05T00:59:42;94477.72;;;19.68;64.85
11339;BME280;5724;42.684;23.252;2022-08-05T01:02:07;94475.31;;;19.70;65.23
11339;BME280;5724;42.684;23.252;2022-08-05T01:04:33;94474.19;;;19.64;65.43
11339;BME280;5724;42.684;23.252;2022-08-05T01:06:58;94475.03;;;19.61;64.81
11339;BME280;5724;42.684;23.252;2022-08-05T01:09:24;94474.28;;;19.57;64.67
11339;BME280;5724;42.684;23.252;2022-08-05T01:11:52;94480.59;;;19.61;64.86
11339;BME280;5724;42.684;23.252;2022-08-05T01:14:35;94482.97;;;19.59;66.17
11339;BME280;5724;42.684;23.252;2022-08-05T01:17:20;94475.63;;;19.41;67.74
11339;BME280;5724;42.684;23.252;2022-08-05T01:19:52;94462.06;;;19.09;68.26
11339;BME280;5724;42.684;23.252;2022-08-05T01:25:06;94477.22;;;18.98;69.19
11339;BME280;5724;42.684;23.252;2022-08-05T01:30:28;94482.53;;;18.78;70.03
11339;BME280;5724;42.684;23.252;2022-08-05T01:32:57;94474.22;;;18.78;70.04
11339;BME280;5724;42.684;23.252;2022-08-05T01:35:26;94478.16;;;18.80;70.04
11339;BME280;5724;42.684;23.252;2022-08-05T01:37:55;94483.81;;;18.59;71.00
11339;BME280;5724;42.684;23.252;2022-08-05T01:40:25;94481.09;;;18.52;71.07
11339;BME280;5724;42.684;23.252;2022-08-05T01:42:53;94478.75;;;18.54;71.01
11339;BME280;5724;42.684;23.252;2022-08-05T01:45:21;94477.66;;;18.37;71.70
11339;BME280;5724;42.684;23.252;2022-08-05T01:47:48;94480.50;;;18.26;71.99
11339;BME280;5724;42.684;23.252;2022-08-05T01:50:19;94489.59;;;18.27;71.79
11339;BME280;5724;42.684;23.252;2022-08-05T01:52:46;94477.00;;;18.15;71.99
11339;BME280;5724;42.684;23.252;2022-08-05T01:55:15;94499.81;;;18.30;71.69
11339;BME280;5724;42.684;23.252;2022-08-05T01:57:44;94495.91;;;18.27;71.66
11339;BME280;5724;42.684;23.252;2022-08-05T02:00:11;94495.53;;;18.25;71.64
11339;BME280;5724;42.684;23.252;2022-08-05T02:02:40;94487.25;;;18.18;71.53
11339;BME280;5724;42.684;23.252;2022-08-05T02:05:10;94490.84;;;18.15;71.12
11339;BME280;5724;42.684;23.252;2022-08-05T02:07:36;94490.09;;;18.08;71.16
11339;BME280;5724;42.684;23.252;2022-08-05T02:10:03;94493.59;;;18.15;70.49
11339;BME280;5724;42.684;23.252;2022-08-05T02:12:32;94488.41;;;18.21;69.99
11339;BME280;5724;42.684;23.252;2022-08-05T02:17:51;94481.00;;;18.03;70.14
11339;BME280;5724;42.684;23.252;2022-08-05T02:20:22;94492.09;;;18.00;70.21
11339;BME280;5724;42.684;23.252;2022-08-05T02:22:55;94487.69;;;18.10;69.44
11339;BME280;5724;42.684;23.252;2022-08-05T02:25:28;94483.72;;;18.14;69.35
11339;BME280;5724;42.684;23.252;2022-08-05T02:27:56;94479.09;;;17.93;69.23
11339;BME280;5724;42.684;23.252;2022-08-05T02:30:25;94485.75;;;18.03;69.22
11339;BME280;5724;42.684;23.252;2022-08-05T02:32:54;94485.44;;;17.90;69.80
11339;BME280;5724;42.684;23.252;2022-08-05T02:35:24;94479.53;;;17.81;70.22
11339;BME280;5724;42.684;23.252;2022-08-05T02:37:54;94477.94;;;17.87;70.38
11339;BME280;5724;42.684;23.252;2022-08-05T02:40:21;94490.19;;;17.83;70.92
11339;BME280;5724;42.684;23.252;2022-08-05T02:42:49;94486.66;;;17.79;70.92
11339;BME280;5724;42.684;23.252;2022-08-05T02:45:15;94483.91;;;17.79;70.89
11339;BME280;5724;42.684;23.252;2022-08-05T02:47:41;94487.06;;;17.77;71.15
11339;BME280;5724;42.684;23.252;2022-08-05T02:50:08;94480.38;;;17.71;71.78
11339;BME280;5724;42.684;23.252;2022-08-05T02:52:35;94476.00;;;17.73;71.41
11339;BME280;5724;42.684;23.252;2022-08-05T02:55:02;94472.88;;;17.68;71.97
11339;BME280;5724;42.684;23.252;2022-08-05T02:57:30;94476.41;;;17.68;71.43
11339;BME280;5724;42.684;23.252;2022-08-05T02:59:56;94478.00;;;17.69;70.92
11339;BME280;5724;42.684;23.252;2022-08-05T03:02:27;94477.94;;;17.84;70.44
11339;BME280;5724;42.684;23.252;2022-08-05T03:04:54;94472.34;;;17.98;69.98
11339;BME280;5724;42.684;23.252;2022-08-05T03:07:22;94475.47;;;18.03;69.96
11339;BME280;5724;42.684;23.252;2022-08-05T03:09:48;94472.72;;;18.07;69.75
11339;BME280;5724;42.684;23.252;2022-08-05T03:12:36;94478.25;;;18.07;69.17
11339;BME280;5724;42.684;23.252;2022-08-05T03:15:04;94481.44;;;17.95;69.67
11339;BME280;5724;42.684;23.252;2022-08-05T03:17:29;94483.88;;;17.86;70.35
11339;BME280;5724;42.684;23.252;2022-08-05T03:19:55;94452.34;;;17.72;70.02
11339;BME280;5724;42.684;23.252;2022-08-05T03:22:20;94478.00;;;17.69;70.87
11339;BME280;5724;42.684;23.252;2022-08-05T03:24:47;94473.25;;;17.77;71.24
11339;BME280;5724;42.684;23.252;2022-08-05T03:27:14;94473.31;;;17.52;71.22
11339;BME280;5724;42.684;23.252;2022-08-05T03:29:40;94478.81;;;17.70;70.88
11339;BME280;5724;42.684;23.252;2022-08-05T03:32:07;94479.97;;;17.65;71.63
11339;BME280;5724;42.684;23.252;2022-08-05T03:34:33;94474.44;;;17.76;71.30
11339;BME280;5724;42.684;23.252;2022-08-05T03:37:00;94479.19;;;17.61;71.99
11339;BME280;5724;42.684;23.252;2022-08-05T03:39:27;94484.72;;;17.72;71.49
11339;BME280;5724;42.684;23.252;2022-08-05T03:41:52;94481.16;;;17.68;71.10
11339;BME280;5724;42.684;23.252;2022-08-05T03:44:18;94482.72;;;17.65;70.89
11339;BME280;5724;42.684;23.252;2022-08-05T03:46:43;94480.41;;;17.53;70.92
11339;BME280;5724;42.684;23.252;2022-08-05T03:49:09;94480.41;;;17.57;70.99
11339;BME280;5724;42.684;23.252;2022-08-05T03:51:38;94481.19;;;17.46;70.95
11339;BME280;5724;42.684;23.252;2022-08-05T03:54:20;94483.13;;;17.64;70.59
11339;BME280;5724;42.684;23.252;2022-08-05T03:56:48;94483.16;;;17.60;70.31
11339;BME280;5724;42.684;23.252;2022-08-05T03:59:21;94487.13;;;17.52;71.16
11339;BME280;5724;42.684;23.252;2022-08-05T04:01:50;94487.50;;;17.54;71.05
11339;BME280;5724;42.684;23.252;2022-08-05T04:04:16;94488.72;;;17.42;71.25
11339;BME280;5724;42.684;23.252;2022-08-05T04:06:44;94473.72;;;17.36;71.30
11339;BME280;5724;42.684;23.252;2022-08-05T04:09:10;94473.38;;;17.38;71.72
11339;BME280;5724;42.684;23.252;2022-08-05T04:11:36;94477.25;;;17.51;71.58
11339;BME280;5724;42.684;23.252;2022-08-05T04:14:02;94483.56;;;17.59;71.08
11339;BME280;5724;42.684;23.252;2022-08-05T04:16:28;94491.41;;;17.67;70.75
11339;BME280;5724;42.684;23.252;2022-08-05T04:18:56;94490.22;;;17.72;70.13
11339;BME280;5724;42.684;23.252;2022-08-05T04:21:22;94492.59;;;17.63;70.14
11339;BME280;5724;42.684;23.252;2022-08-05T04:23:48;94483.50;;;17.73;69.78
11339;BME280;5724;42.684;23.252;2022-08-05T04:26:14;94495.31;;;17.84;69.55
11339;BME280;5724;42.684;23.252;2022-08-05T04:28:40;94481.13;;;17.79;70.48
11339;BME280;5724;42.684;23.252;2022-08-05T04:31:05;94479.56;;;17.78;70.37
11339;BME280;5724;42.684;23.252;2022-08-05T04:33:30;94481.13;;;17.86;70.44
11339;BME280;5724;42.684;23.252;2022-08-05T04:35:56;94483.41;;;17.98;70.23
11339;BME280;5724;42.684;23.252;2022-08-05T04:38:22;94453.50;;;17.75;70.21
11339;BME280;5724;42.684;23.252;2022-08-05T04:40:47;94484.19;;;18.06;69.91
11339;BME280;5724;42.684;23.252;2022-08-05T04:43:13;94478.56;;;18.20;69.94
11339;BME280;5724;42.684;23.252;2022-08-05T04:45:38;94492.69;;;18.33;68.89
11339;BME280;5724;42.684;23.252;2022-08-05T04:48:09;94477.22;;;18.46;68.41
11339;BME280;5724;42.684;23.252;2022-08-05T04:50:40;94475.97;;;18.54;67.97
11339;BME280;5724;42.684;23.252;2022-08-05T04:53:07;94477.88;;;18.64;67.60
11339;BME280;5724;42.684;23.252;2022-08-05T04:55:34;94471.50;;;18.74;67.30
11339;BME280;5724;42.684;23.252;2022-08-05T04:58:00;94480.88;;;18.87;66.72
11339;BME280;5724;42.684;23.252;2022-08-05T05:00:25;94478.06;;;18.91;66.41
11339;BME280;5724;42.684;23.252;2022-08-05T05:02:51;94450.63;;;18.59;66.59
11339;BME280;5724;42.684;23.252;2022-08-05T05:05:16;94473.06;;;18.72;67.15
11339;BME280;5724;42.684;23.252;2022-08-05T05:07:42;94465.44;;;18.86;66.62
11339;BME280;5724;42.684;23.252;2022-08-05T05:10:07;94476.38;;;19.04;66.57
11339;BME280;5724;42.684;23.252;2022-08-05T05:12:33;94477.13;;;19.08;65.94
11339;BME280;5724;42.684;23.252;2022-08-05T05:14:59;94470.25;;;18.79;66.25
11339;BME280;5724;42.684;23.252;2022-08-05T05:17:24;94476.94;;;18.81;66.24
11339;BME280;5724;42.684;23.252;2022-08-05T05:19:53;94473.94;;;19.10;65.49
11339;BME280;5724;42.684;23.252;2022-08-05T05:22:21;94477.25;;;19.35;65.55
11339;BME280;5724;42.684;23.252;2022-08-05T05:24:47;94475.38;;;19.25;64.82
11339;BME280;5724;42.684;23.252;2022-08-05T05:27:13;94474.28;;;19.15;65.10
11339;BME280;5724;42.684;23.252;2022-08-05T05:29:38;94468.78;;;19.12;65.36
11339;BME280;5724;42.684;23.252;2022-08-05T05:32:04;94485.59;;;19.32;64.45
11339;BME280;5724;42.684;23.252;2022-08-05T05:34:30;94475.38;;;19.25;64.71
11339;BME280;5724;42.684;23.252;2022-08-05T05:36:55;94473.56;;;19.45;63.63
11339;BME280;5724;42.684;23.252;2022-08-05T05:39:21;94479.00;;;19.60;63.56
11339;BME280;5724;42.684;23.252;2022-08-05T05:41:46;94478.84;;;19.74;63.03
11339;BME280;5724;42.684;23.252;2022-08-05T05:44:12;94469.66;;;19.81;62.18
11339;BME280;5724;42.684;23.252;2022-08-05T05:46:37;94478.53;;;19.99;62.81
11339;BME280;5724;42.684;23.252;2022-08-05T05:49:03;94482.25;;;20.16;61.43
11339;BME280;5724;42.684;23.252;2022-08-05T05:51:28;94475.97;;;20.12;61.47
11339;BME280;5724;42.684;23.252;2022-08-05T05:53:54;94478.69;;;19.88;61.95
11339;BME280;5724;42.684;23.252;2022-08-05T05:56:21;94479.97;;;20.11;61.83
11339;BME280;5724;42.684;23.252;2022-08-05T05:58:47;94485.63;;;20.30;61.83
11339;BME280;5724;42.684;23.252;2022-08-05T06:01:13;94459.13;;;20.26;61.19
11339;BME280;5724;42.684;23.252;2022-08-05T06:03:41;94494.09;;;20.50;60.87
11339;BME280;5724;42.684;23.252;2022-08-05T06:06:07;94488.25;;;20.41;60.82
11339;BME280;5724;42.684;23.252;2022-08-05T06:08:32;94477.97;;;20.69;61.21
11339;BME280;5724;42.684;23.252;2022-08-05T06:10:58;94489.16;;;20.89;60.44
11339;BME280;5724;42.684;23.252;2022-08-05T06:13:23;94492.53;;;21.00;61.03
11339;BME280;5724;42.684;23.252;2022-08-05T06:15:49;94486.69;;;20.94;60.39
11339;BME280;5724;42.684;23.252;2022-08-05T06:18:14;94479.41;;;21.04;60.52
11339;BME280;5724;42.684;23.252;2022-08-05T06:20:40;94484.00;;;21.14;60.63
11339;BME280;5724;42.684;23.252;2022-08-05T06:23:05;94487.91;;;21.17;60.12
11339;BME280;5724;42.684;23.252;2022-08-05T06:25:31;94485.91;;;21.40;59.82
11339;BME280;5724;42.684;23.252;2022-08-05T06:27:56;94483.59;;;21.59;59.32
11339;BME280;5724;42.684;23.252;2022-08-05T06:30:22;94477.91;;;21.86;58.43
11339;BME280;5724;42.684;23.252;2022-08-05T06:32:51;94477.78;;;21.73;58.67
11339;BME280;5724;42.684;23.252;2022-08-05T06:35:17;94478.19;;;21.91;58.42
11339;BME280;5724;42.684;23.252;2022-08-05T06:37:42;94481.47;;;21.86;58.79
11339;BME280;5724;42.684;23.252;2022-08-05T06:40:08;94483.13;;;22.04;57.86
11339;BME280;5724;42.684;23.252;2022-08-05T06:42:34;94479.91;;;22.25;57.39
11339;BME280;5724;42.684;23.252;2022-08-05T06:45:00;94479.13;;;22.24;56.43
11339;BME280;5724;42.684;23.252;2022-08-05T06:47:26;94475.56;;;22.24;56.03
11339;BME280;5724;42.684;23.252;2022-08-05T06:49:51;94481.22;;;22.37;55.38
11339;BME280;5724;42.684;23.252;2022-08-05T06:52:17;94479.59;;;22.19;55.27
11339;BME280;5724;42.684;23.252;2022-08-05T06:54:42;94479.06;;;22.08;55.76
11339;BME280;5724;42.684;23.252;2022-08-05T06:57:07;94476.88;;;22.36;55.26
11339;BME280;5724;42.684;23.252;2022-08-05T06:59:33;94480.09;;;22.70;54.50
11339;BME280;5724;42.684;23.252;2022-08-05T07:01:58;94484.84;;;22.90;54.27
11339;BME280;5724;42.684;23.252;2022-08-05T07:04:24;94474.91;;;23.21;52.91
11339;BME280;5724;42.684;23.252;2022-08-05T07:06:50;94476.09;;;23.36;52.13
11339;BME280;5724;42.684;23.252;2022-08-05T07:09:15;94473.66;;;23.38;51.76
11339;BME280;5724;42.684;23.252;2022-08-05T07:11:41;94489.22;;;23.52;52.31
11339;BME280;5724;42.684;23.252;2022-08-05T07:14:06;94485.09;;;23.73;50.84
11339;BME280;5724;42.684;23.252;2022-08-05T07:16:50;94482.69;;;23.75;50.97
11339;BME280;5724;42.684;23.252;2022-08-05T07:19:18;94488.19;;;23.91;50.22
11339;BME280;5724;42.684;23.252;2022-08-05T07:21:45;94487.09;;;24.02;49.78
11339;BME280;5724;42.684;23.252;2022-08-05T07:24:12;94485.97;;;23.99;48.38
11339;BME280;5724;42.684;23.252;2022-08-05T07:26:38;94483.91;;;24.16;48.45
11339;BME280;5724;42.684;23.252;2022-08-05T07:29:04;94477.59;;;23.99;48.28
11339;BME280;5724;42.684;23.252;2022-08-05T07:31:29;94483.63;;;24.39;48.42
11339;BME280;5724;42.684;23.252;2022-08-05T07:33:55;94481.66;;;24.52;48.00
11339;BME280;5724;42.684;23.252;2022-08-05T07:36:20;94489.38;;;24.74;48.07
11339;BME280;5724;42.684;23.252;2022-08-05T07:38:46;94486.91;;;25.01;47.81
11339;BME280;5724;42.684;23.252;2022-08-05T07:41:15;94484.81;;;25.05;47.26
11339;BME280;5724;42.684;23.252;2022-08-05T07:43:42;94489.50;;;25.21;46.97
11339;BME280;5724;42.684;23.252;2022-08-05T07:46:07;94484.00;;;25.18;46.73
11339;BME280;5724;42.684;23.252;2022-08-05T07:48:33;94480.75;;;25.32;47.32
11339;BME280;5724;42.684;23.252;2022-08-05T07:50:58;94482.84;;;25.40;46.71
11339;BME280;5724;42.684;23.252;2022-08-05T07:53:24;94472.53;;;25.50;46.38
11339;BME280;5724;42.684;23.252;2022-08-05T07:55:50;94479.00;;;25.60;44.94
11339;BME280;5724;42.684;23.252;2022-08-05T07:58:15;94481.66;;;25.63;45.02
11339;BME280;5724;42.684;23.252;2022-08-05T08:00:41;94478.03;;;25.88;44.52
11339;BME280;5724;42.684;23.252;2022-08-05T08:03:11;94468.63;;;25.82;44.47
11339;BME280;5724;42.684;23.252;2022-08-05T08:05:40;94470.72;;;25.91;44.41
11339;BME280;5724;42.684;23.252;2022-08-05T08:08:09;94472.28;;;26.14;44.60
11339;BME280;5724;42.684;23.252;2022-08-05T08:10:35;94477.63;;;26.21;45.22
11339;BME280;5724;42.684;23.252;2022-08-05T08:13:00;94471.44;;;26.26;43.76
11339;BME280;5724;42.684;23.252;2022-08-05T08:15:26;94474.38;;;26.22;44.37
11339;BME280;5724;42.684;23.252;2022-08-05T08:17:51;94466.81;;;26.10;44.54
11339;BME280;5724;42.684;23.252;2022-08-05T08:20:17;94469.16;;;26.12;43.69
11339;BME280;5724;42.684;23.252;2022-08-05T08:22:42;94476.38;;;26.44;42.61
11339;BME280;5724;42.684;23.252;2022-08-05T08:25:08;94473.97;;;26.55;42.14
11339;BME280;5724;42.684;23.252;2022-08-05T08:27:34;94467.03;;;26.69;41.75
11339;BME280;5724;42.684;23.252;2022-08-05T08:30:00;94468.50;;;26.92;42.52
11339;BME280;5724;42.684;23.252;2022-08-05T08:32:25;94478.47;;;27.24;41.99
11339;BME280;5724;42.684;23.252;2022-08-05T08:34:52;94458.53;;;27.31;40.29
11339;BME280;5724;42.684;23.252;2022-08-05T08:37:17;94470.56;;;27.59;39.89
11339;BME280;5724;42.684;23.252;2022-08-05T08:39:43;94476.19;;;27.59;39.05
11339;BME280;5724;42.684;23.252;2022-08-05T08:42:09;94465.69;;;27.23;39.77
11339;BME280;5724;42.684;23.252;2022-08-05T08:44:35;94469.63;;;27.34;39.93
11339;BME280;5724;42.684;23.252;2022-08-05T08:47:02;94464.34;;;27.55;40.23
11339;BME280;5724;42.684;23.252;2022-08-05T08:49:30;94462.94;;;27.59;40.09
11339;BME280;5724;42.684;23.252;2022-08-05T08:52:11;94466.53;;;27.42;40.18
11339;BME280;5724;42.684;23.252;2022-08-05T08:54:37;94462.19;;;27.68;39.65
11339;BME280;5724;42.684;23.252;2022-08-05T08:57:06;94457.53;;;27.74;39.83
11339;BME280;5724;42.684;23.252;2022-08-05T08:59:33;94464.09;;;27.89;40.04
11339;BME280;5724;42.684;23.252;2022-08-05T09:02:00;94455.66;;;27.89;39.18
11339;BME280;5724;42.684;23.252;2022-08-05T09:04:28;94460.94;;;28.15;38.42
11339;BME280;5724;42.684;23.252;2022-08-05T09:06:54;94457.84;;;27.85;37.75
11339;BME280;5724;42.684;23.252;2022-08-05T09:09:19;94455.34;;;27.78;35.92
11339;BME280;5724;42.684;23.252;2022-08-05T09:11:45;94453.47;;;28.12;36.28
11339;BME280;5724;42.684;23.252;2022-08-05T09:14:10;94455.13;;;28.28;36.46
11339;BME280;5724;42.684;23.252;2022-08-05T09:16:38;94449.66;;;28.51;36.34
11339;BME280;5724;42.684;23.252;2022-08-05T09:19:03;94444.22;;;28.48;35.54
11339;BME280;5724;42.684;23.252;2022-08-05T09:21:29;94445.22;;;28.69;35.30
11339;BME280;5724;42.684;23.252;2022-08-05T09:24:06;94437.84;;;28.38;34.58
11339;BME280;5724;42.684;23.252;2022-08-05T09:26:34;94432.13;;;28.57;33.80
11339;BME280;5724;42.684;23.252;2022-08-05T09:29:03;94430.44;;;28.59;33.92
11339;BME280;5724;42.684;23.252;2022-08-05T09:31:30;94425.03;;;28.89;33.40
11339;BME280;5724;42.684;23.252;2022-08-05T09:34:01;94429.06;;;28.36;33.08
11339;BME280;5724;42.684;23.252;2022-08-05T09:36:45;94429.31;;;28.57;33.72
11339;BME280;5724;42.684;23.252;2022-08-05T09:39:15;94426.53;;;28.99;33.55
11339;BME280;5724;42.684;23.252;2022-08-05T09:41:58;94425.72;;;28.56;34.03
11339;BME280;5724;42.684;23.252;2022-08-05T09:44:37;94424.84;;;28.92;33.81
11339;BME280;5724;42.684;23.252;2022-08-05T09:47:24;94417.53;;;29.19;34.69
11339;BME280;5724;42.684;23.252;2022-08-05T09:49:54;94417.34;;;29.46;34.14
11339;BME280;5724;42.684;23.252;2022-08-05T09:52:23;94414.78;;;29.57;33.61
11339;BME280;5724;42.684;23.252;2022-08-05T09:54:54;94410.72;;;29.58;32.75
11339;BME280;5724;42.684;23.252;2022-08-05T09:57:38;94408.81;;;29.79;33.10
11339;BME280;5724;42.684;23.252;2022-08-05T10:00:11;94408.91;;;29.46;33.80
11339;BME280;5724;42.684;23.252;2022-08-05T10:02:46;94402.94;;;29.53;31.82
11339;BME280;5724;42.684;23.252;2022-08-05T10:05:20;94409.31;;;29.30;32.47
11339;BME280;5724;42.684;23.252;2022-08-05T10:07:53;94398.72;;;28.59;33.71
11339;BME280;5724;42.684;23.252;2022-08-05T10:10:24;94395.84;;;28.77;34.25
11339;BME280;5724;42.684;23.252;2022-08-05T10:12:59;94386.84;;;29.21;34.05
11339;BME280;5724;42.684;23.252;2022-08-05T10:15:34;94388.41;;;29.46;34.08
11339;BME280;5724;42.684;23.252;2022-08-05T10:18:21;94383.25;;;29.68;33.73
11339;BME280;5724;42.684;23.252;2022-08-05T10:23:37;94387.53;;;29.78;32.30
11339;BME280;5724;42.684;23.252;2022-08-05T10:26:07;94376.50;;;30.04;33.90
11339;BME280;5724;42.684;23.252;2022-08-05T10:28:34;94385.50;;;29.64;32.86
11339;BME280;5724;42.684;23.252;2022-08-05T10:31:01;94379.63;;;30.06;32.05
11339;BME280;5724;42.684;23.252;2022-08-05T10:33:31;94373.72;;;30.34;32.52
11339;BME280;5724;42.684;23.252;2022-08-05T10:35:58;94386.72;;;30.46;31.15
11339;BME280;5724;42.684;23.252;2022-08-05T10:38:27;94372.81;;;29.98;31.15
11339;BME280;5724;42.684;23.252;2022-08-05T10:41:08;94379.78;;;29.73;31.36
11339;BME280;5724;42.684;23.252;2022-08-05T10:46:20;94362.41;;;29.75;32.02
11339;BME280;5724;42.684;23.252;2022-08-05T10:48:48;94369.47;;;29.70;31.83
11339;BME280;5724;42.684;23.252;2022-08-05T10:51:19;94367.78;;;29.25;32.15
11339;BME280;5724;42.684;23.252;2022-08-05T10:56:16;94359.13;;;29.04;32.71
11339;BME280;5724;42.684;23.252;2022-08-05T11:01:28;94363.88;;;28.98;32.45
11339;BME280;5724;42.684;23.252;2022-08-05T11:04:15;94348.94;;;29.31;32.23
11339;BME280;5724;42.684;23.252;2022-08-05T11:09:24;94358.00;;;29.59;33.11
11339;BME280;5724;42.684;23.252;2022-08-05T11:11:52;94350.16;;;29.78;32.54
11339;BME280;5724;42.684;23.252;2022-08-05T11:17:30;94347.44;;;29.83;31.02
11339;BME280;5724;42.684;23.252;2022-08-05T11:19:57;94358.22;;;29.46;31.09
11339;BME280;5724;42.684;23.252;2022-08-05T11:25:36;94352.59;;;29.85;31.96
11339;BME280;5724;42.684;23.252;2022-08-05T11:39:10;94336.38;;;29.95;32.08
11339;BME280;5724;42.684;23.252;2022-08-05T11:41:40;94335.03;;;30.34;31.33
11339;BME280;5724;42.684;23.252;2022-08-05T11:44:11;94330.13;;;30.49;31.52
11339;BME280;5724;42.684;23.252;2022-08-05T11:46:39;94337.66;;;30.88;30.68
11339;BME280;5724;42.684;23.252;2022-08-05T11:49:06;94329.38;;;31.19;29.95
11339;BME280;5724;42.684;23.252;2022-08-05T11:51:33;94329.47;;;31.25;30.25
11339;BME280;5724;42.684;23.252;2022-08-05T11:53:58;94328.91;;;31.41;30.32
11339;BME280;5724;42.684;23.252;2022-08-05T11:56:46;94328.78;;;31.30;30.80
11339;BME280;5724;42.684;23.252;2022-08-05T11:59:23;94334.59;;;31.26;30.23
11339;BME280;5724;42.684;23.252;2022-08-05T12:02:00;94328.53;;;31.54;29.39
11339;BME280;5724;42.684;23.252;2022-08-05T12:04:27;94319.44;;;30.68;30.62
11339;BME280;5724;42.684;23.252;2022-08-05T12:06:54;94317.69;;;30.56;29.98
11339;BME280;5724;42.684;23.252;2022-08-05T12:09:24;94323.09;;;30.25;30.50
11339;BME280;5724;42.684;23.252;2022-08-05T12:11:52;94319.88;;;30.17;31.05
11339;BME280;5724;42.684;23.252;2022-08-05T12:14:18;94317.09;;;30.67;31.15
11339;BME280;5724;42.684;23.252;2022-08-05T12:16:44;94315.91;;;30.59;29.98
11339;BME280;5724;42.684;23.252;2022-08-05T12:19:13;94316.41;;;30.57;30.73
11339;BME280;5724;42.684;23.252;2022-08-05T12:21:46;94314.59;;;30.39;29.68
11339;BME280;5724;42.684;23.252;2022-08-05T12:24:15;94317.00;;;30.96;30.21
11339;BME280;5724;42.684;23.252;2022-08-05T12:26:49;94303.88;;;31.14;31.04
11339;BME280;5724;42.684;23.252;2022-08-05T12:29:20;94306.44;;;31.12;30.01
11339;BME280;5724;42.684;23.252;2022-08-05T12:31:57;94309.47;;;31.08;30.83
11339;BME280;5724;42.684;23.252;2022-08-05T12:34:26;94301.28;;;30.90;30.35
11339;BME280;5724;42.684;23.252;2022-08-05T12:36:57;94298.28;;;30.43;29.86
11339;BME280;5724;42.684;23.252;2022-08-05T12:39:24;94292.47;;;30.17;30.44
11339;BME280;5724;42.684;23.252;2022-08-05T12:41:58;94296.53;;;29.72;30.58
11339;BME280;5724;42.684;23.252;2022-08-05T12:44:24;94289.13;;;29.45;31.52
11339;BME280;5724;42.684;23.252;2022-08-05T12:46:54;94295.69;;;29.42;32.25
11339;BME280;5724;42.684;23.252;2022-08-05T12:49:20;94288.09;;;29.33;32.29
11339;BME280;5724;42.684;23.252;2022-08-05T12:51:52;94283.00;;;29.47;33.22
11339;BME280;5724;42.684;23.252;2022-08-05T12:54:27;94281.03;;;29.38;32.86
11339;BME280;5724;42.684;23.252;2022-08-05T12:56:56;94276.19;;;29.39;32.61
11339;BME280;5724;42.684;23.252;2022-08-05T13:02:01;94272.38;;;29.27;32.87
11339;BME280;5724;42.684;23.252;2022-08-05T13:04:41;94270.47;;;29.48;32.84
11339;BME280;5724;42.684;23.252;2022-08-05T13:07:15;94280.03;;;29.65;32.06
11339;BME280;5724;42.684;23.252;2022-08-05T13:09:52;94278.38;;;29.58;32.53
11339;BME280;5724;42.684;23.252;2022-08-05T13:12:19;94269.66;;;29.86;31.85
11339;BME280;5724;42.684;23.252;2022-08-05T13:14:57;94264.69;;;30.25;32.06
11339;BME280;5724;42.684;23.252;2022-08-05T13:17:28;94268.91;;;30.50;31.44
11339;BME280;5724;42.684;23.252;2022-08-05T13:20:10;94265.28;;;30.64;31.16
11339;BME280;5724;42.684;23.252;2022-08-05T13:22:38;94258.66;;;30.32;31.02
11339;BME280;5724;42.684;23.252;2022-08-05T13:25:08;94256.53;;;30.12;30.83
11339;BME280;5724;42.684;23.252;2022-08-05T13:27:42;94259.41;;;30.33;31.20
11339;BME280;5724;42.684;23.252;2022-08-05T13:30:12;94254.28;;;30.16;31.69
11339;BME280;5724;42.684;23.252;2022-08-05T13:32:38;94259.56;;;30.44;30.47
11339;BME280;5724;42.684;23.252;2022-08-05T13:35:05;94257.38;;;30.68;30.03
11339;BME280;5724;42.684;23.252;2022-08-05T13:37:31;94259.25;;;30.92;30.13
11339;BME280;5724;42.684;23.252;2022-08-05T13:39:58;94254.94;;;31.37;30.54
11339;BME280;5724;42.684;23.252;2022-08-05T13:42:24;94253.00;;;31.49;29.00
11339;BME280;5724;42.684;23.252;2022-08-05T13:44:51;94244.53;;;31.49;30.10
11339;BME280;5724;42.684;23.252;2022-08-05T13:47:17;94257.31;;;31.70;28.17